Time;durP1;ratioP1;P1;durP2;ratioP2;P2;SDS_P1;SDS_P2;PMS_P1;PMS_P2;Temp;Humidity;BMP_temperature;BMP_pressure;BME280_temperature;BME280_humidity;BME280_pressure;Samples;Min_cycle;Max_cycle;Signal;HPM_P1;HPM_P2
2023/10/11 00:01:18;;;;;;;10.37;6.00;;;;;;;10.47;100.00;101132.19;1508575;90;21302;-81
2023/10/11 00:03:53;;;;;;;12.30;6.57;;;;;;;10.50;100.00;101134.11;1531262;90;21346;-81
2023/10/11 00:06:20;;;;;;;9.27;6.43;;;;;;;10.52;100.00;101130.00;1535501;89;21568;-81
2023/10/11 00:08:46;;;;;;;9.10;6.17;;;;;;;10.51;100.00;101128.33;1379516;90;21390;-81
2023/10/11 00:11:18;;;;;;;7.30;5.50;;;;;;;10.49;100.00;101137.71;1379927;90;21420;-81
2023/10/11 00:13:40;;;;;;;8.50;6.13;;;;;;;10.46;100.00;101135.81;1377961;89;22469;-80
2023/10/11 00:16:10;;;;;;;12.30;6.40;;;;;;;10.44;100.00;101131.13;1379943;89;22397;-80
2023/10/11 00:18:42;;;;;;;11.78;6.17;;;;;;;10.44;100.00;101135.09;1378117;90;22204;-81
2023/10/11 00:21:15;;;;;;;7.40;5.67;;;;;;;10.42;100.00;101131.27;1376390;89;21494;-81
2023/10/11 00:23:43;;;;;;;12.43;5.53;;;;;;;10.38;100.00;101128.02;1529516;89;21405;-81
2023/10/11 00:26:10;;;;;;;8.08;5.20;;;;;;;10.38;100.00;101130.67;1375443;89;22255;-79
2023/10/11 00:28:38;;;;;;;8.17;5.37;;;;;;;10.39;100.00;101131.05;1379451;89;21376;-80
2023/10/11 00:31:11;;;;;;;9.47;5.13;;;;;;;10.41;100.00;101126.09;1376587;90;21383;-81
2023/10/11 00:33:33;;;;;;;7.83;5.03;;;;;;;10.40;100.00;101125.27;1377960;89;21375;-80
2023/10/11 00:36:02;;;;;;;10.77;6.13;;;;;;;10.39;100.00;101121.78;1373304;90;21346;-79
2023/10/11 00:38:27;;;;;;;11.83;5.77;;;;;;;10.31;100.00;101129.52;1383654;89;21450;-79
2023/10/11 00:43:41;;;;;;;8.77;5.57;;;;;;;10.22;100.00;101132.91;1535625;89;21398;-79
2023/10/11 00:46:09;;;;;;;7.97;5.40;;;;;;;10.19;100.00;101133.17;1529419;89;21407;-79
2023/10/11 00:49:08;;;;;;;9.47;5.57;;;;;;;10.18;100.00;101123.53;1377378;89;22205;-79
2023/10/11 00:51:30;;;;;;;9.13;5.20;;;;;;;10.22;100.00;101130.76;1519648;89;21427;-79
2023/10/11 00:54:01;;;;;;;8.17;5.97;;;;;;;10.23;100.00;101131.94;1374405;90;21434;-79
2023/10/11 00:56:34;;;;;;;11.17;5.93;;;;;;;10.26;100.00;101136.13;1462670;89;21420;-80
2023/10/11 00:59:08;;;;;;;10.07;6.13;;;;;;;10.26;100.00;101127.70;1535465;89;21465;-80
2023/10/11 01:01:34;;;;;;;11.60;6.83;;;;;;;10.25;100.00;101127.36;1381215;89;22263;-80
2023/10/11 01:04:00;;;;;;;10.20;5.83;;;;;;;10.27;100.00;101122.82;1535613;90;21488;-80
2023/10/11 01:06:28;;;;;;;8.30;6.20;;;;;;;10.29;100.00;101126.64;1379381;90;21354;-80
2023/10/11 01:08:54;;;;;;;13.00;6.33;;;;;;;10.31;100.00;101117.61;1520681;90;21597;-81
2023/10/11 01:11:22;;;;;;;7.87;5.30;;;;;;;10.35;100.00;101120.34;1379682;89;21383;-82
2023/10/11 01:13:51;;;;;;;7.27;5.23;;;;;;;10.38;100.00;101128.02;1378062;89;21338;-80
2023/10/11 01:16:28;;;;;;;10.93;6.23;;;;;;;10.42;100.00;101119.86;1376041;89;21368;-80
2023/10/11 01:18:54;;;;;;;8.73;5.40;;;;;;;10.45;100.00;101122.24;1535415;89;21384;-80
2023/10/11 01:21:21;;;;;;;9.70;6.57;;;;;;;10.45;100.00;101113.81;1378875;89;21318;-80
2023/10/11 01:23:48;;;;;;;11.17;5.37;;;;;;;10.40;100.00;101126.58;1379372;90;22293;-80
2023/10/11 01:26:15;;;;;;;12.23;6.70;;;;;;;10.33;100.00;101120.15;1384615;89;21339;-79
2023/10/11 01:28:47;;;;;;;8.67;5.70;;;;;;;10.31;100.00;101124.72;1379254;90;22330;-80
2023/10/11 01:31:16;;;;;;;12.37;5.93;;;;;;;10.34;100.00;101121.33;1536067;89;21752;-80
2023/10/11 01:33:49;;;;;;;21.40;7.30;;;;;;;10.36;100.00;101126.02;1382955;89;21361;-79
2023/10/11 01:36:15;;;;;;;10.40;6.50;;;;;;;10.41;100.00;101128.74;1530538;90;21559;-79
2023/10/11 01:38:48;;;;;;;13.03;6.80;;;;;;;10.45;100.00;101120.42;1379721;89;21295;-79
2023/10/11 01:41:18;;;;;;;11.80;6.87;;;;;;;10.47;100.00;101132.19;1529759;89;22249;-80
2023/10/11 01:43:46;;;;;;;11.57;6.80;;;;;;;10.45;100.00;101128.86;1533714;89;21428;-79
2023/10/11 01:46:16;;;;;;;10.63;6.67;;;;;;;10.44;100.00;101131.13;1371114;90;21384;-80
2023/10/11 01:48:44;;;;;;;9.93;5.95;;;;;;;10.43;100.00;101128.14;1374721;90;21517;-80
2023/10/11 01:51:11;;;;;;;10.70;6.47;;;;;;;10.43;100.00;101121.52;1380483;89;21353;-80
2023/10/11 01:53:37;;;;;;;9.90;6.60;;;;;;;10.42;100.00;101122.50;1378699;90;21538;-80
2023/10/11 01:56:04;;;;;;;11.27;6.60;;;;;;;10.40;100.00;101122.62;1385371;89;22381;-80
2023/10/11 01:58:30;;;;;;;11.93;6.37;;;;;;;10.41;100.00;101124.77;1535461;89;21368;-80
2023/10/11 02:00:56;;;;;;;15.87;6.63;;;;;;;10.47;100.00;101124.25;1379936;89;21361;-80
2023/10/11 02:03:25;;;;;;;11.47;6.80;;;;;;;10.50;100.00;101130.60;1379592;90;21494;-80
2023/10/11 02:05:51;;;;;;;9.43;6.27;;;;;;;10.51;100.00;101130.98;1377226;89;21354;-80
2023/10/11 02:08:17;;;;;;;8.30;6.07;;;;;;;10.50;100.00;101126.64;1379726;89;21460;-80
2023/10/11 02:10:44;;;;;;;11.40;6.60;;;;;;;10.46;100.00;101132.68;1379282;90;21362;-80
2023/10/11 02:13:11;;;;;;;11.57;6.50;;;;;;;10.37;100.00;101130.33;1384711;89;21645;-80
2023/10/11 02:15:39;;;;;;;9.77;6.40;;;;;;;10.26;100.00;101126.88;1378465;89;21361;-80
2023/10/11 02:18:10;;;;;;;9.73;6.27;;;;;;;10.19;100.00;101126.55;1377617;89;22300;-79
2023/10/11 02:20:46;;;;;;;14.03;7.67;;;;;;;10.10;100.00;101139.23;1529502;89;21375;-78
2023/10/11 02:23:12;;;;;;;10.47;6.83;;;;;;;10.03;100.00;101139.36;1535450;89;21510;-78
2023/10/11 02:25:41;;;;;;;12.13;7.20;;;;;;;9.94;100.00;101139.16;1379810;89;21391;-79
2023/10/11 02:28:09;;;;;;;16.50;7.70;;;;;;;9.89;100.00;101141.81;1383050;89;21369;-81
2023/10/11 02:30:38;;;;;;;9.63;6.27;;;;;;;9.86;100.00;101138.94;1370903;90;21309;-81
2023/10/11 02:33:07;;;;;;;7.87;6.03;;;;;;;9.84;100.00;101142.21;1375633;89;21391;-82
2023/10/11 02:35:49;;;;;;;11.83;6.47;;;;;;;9.79;100.00;101141.73;1382942;89;21457;-80
2023/10/11 02:38:09;;;;;;;9.37;7.07;;;;;;;9.71;100.00;101137.55;1393351;89;21383;-81
2023/10/11 02:40:37;;;;;;;10.37;6.87;;;;;;;9.61;100.00;101144.08;1381659;89;21391;-81
2023/10/11 02:43:03;;;;;;;13.63;7.70;;;;;;;9.55;100.00;101142.39;1402116;89;21392;-81
2023/10/11 02:45:32;;;;;;;13.83;7.20;;;;;;;9.53;100.00;101141.70;1535288;89;22436;-81
2023/10/11 02:48:09;;;;;;;14.37;8.27;;;;;;;9.55;100.00;101138.42;1377914;89;21442;-81
2023/10/11 02:50:36;;;;;;;9.80;6.23;;;;;;;9.57;100.00;101141.80;1535014;89;21391;-81
2023/10/11 02:53:05;;;;;;;13.27;6.47;;;;;;;9.60;100.00;101146.34;1377240;89;21398;-81
2023/10/11 02:55:28;;;;;;;;;;;;;;;9.63;100.00;101150.06;1379589;90;21545;-81
2023/10/11 02:58:06;;;;;;;13.73;5.93;;;;;;;9.65;100.00;101148.63;1506051;89;20202;-81
2023/10/11 03:00:22;;;;;;;11.00;6.60;;;;;;;9.67;100.00;101150.67;1377288;89;21435;-80
2023/10/11 03:02:54;;;;;;;8.73;6.10;;;;;;;9.68;100.00;101147.05;1380049;89;21531;-80
2023/10/11 03:05:27;;;;;;;11.07;6.00;;;;;;;9.69;100.00;101148.72;1377133;90;21435;-79
2023/10/11 03:08:21;;;;;;;11.70;5.63;;;;;;;9.69;100.00;101142.95;1381908;89;21398;-79
2023/10/11 03:10:56;;;;;;;11.03;5.80;;;;;;;9.73;100.00;101141.41;1377486;91;21599;-79
2023/10/11 03:13:25;;;;;;;8.47;5.87;;;;;;;9.76;100.00;101143.80;1481780;89;22301;-79
2023/10/11 03:15:56;;;;;;;9.17;5.83;;;;;;;9.80;100.00;101146.05;1381956;89;21361;-80
2023/10/11 03:18:33;;;;;;;10.68;6.33;;;;;;;9.86;100.00;101148.19;1378324;89;21564;-80
2023/10/11 03:21:16;;;;;;;9.53;6.70;;;;;;;9.87;100.00;101148.56;1535424;89;21391;-80
2023/10/11 03:23:45;;;;;;;8.87;6.00;;;;;;;9.86;100.00;101161.90;1530144;90;21368;-80
2023/10/11 03:28:59;;;;;;;9.53;5.60;;;;;;;9.77;100.00;101158.20;1528651;90;21317;-81
2023/10/11 03:31:34;;;;;;;12.30;5.67;;;;;;;9.80;100.00;101157.11;1381196;89;22257;-80
2023/10/11 03:34:10;;;;;;;7.40;5.50;;;;;;;9.81;100.00;101162.75;1440717;89;21405;-80
2023/10/11 03:36:34;;;;;;;7.97;6.15;;;;;;;9.85;100.00;101170.31;1375052;90;22307;-80
2023/10/11 03:39:08;;;;;;;9.07;6.40;;;;;;;9.90;100.00;101163.34;1383154;89;22279;-80
2023/10/11 03:41:29;;;;;;;11.50;6.40;;;;;;;9.97;100.00;101166.31;1528601;89;22197;-80
2023/10/11 03:44:17;;;;;;;11.20;7.50;;;;;;;10.01;100.00;101158.48;1376255;89;21346;-80
2023/10/11 03:46:40;;;;;;;10.47;6.90;;;;;;;10.06;100.00;101156.30;1529414;89;22299;-80
2023/10/11 03:51:50;;;;;;;10.07;6.00;;;;;;;10.12;100.00;101147.86;1535397;89;21339;-81
2023/10/11 03:54:24;;;;;;;12.13;5.63;;;;;;;10.16;100.00;101146.66;1418941;90;21382;-80
2023/10/11 03:56:55;;;;;;;9.40;5.60;;;;;;;10.19;100.00;101142.92;1382870;89;22329;-80
2023/10/11 03:59:26;;;;;;;8.10;5.87;;;;;;;10.22;100.00;101135.56;1545712;88;21456;-80
2023/10/11 04:01:53;;;;;;;9.00;6.05;;;;;;;10.27;100.00;101141.34;1516130;88;21412;-81
2023/10/11 04:04:23;;;;;;;8.50;5.93;;;;;;;10.32;100.00;101141.77;1386930;88;21323;-80
2023/10/11 04:06:57;;;;;;;9.33;5.30;;;;;;;10.36;100.00;101135.27;1373752;90;21582;-79
2023/10/11 04:09:32;;;;;;;;;;;;;;;10.40;100.00;101129.23;1394788;89;21537;-79
2023/10/11 04:11:54;;;;;;;8.38;5.80;;;;;;;10.40;100.00;101131.87;1396252;88;20231;-78
2023/10/11 04:14:32;;;;;;;9.03;6.03;;;;;;;10.38;100.00;101142.58;1384266;88;21471;-79
2023/10/11 04:16:55;;;;;;;11.97;6.83;;;;;;;10.35;100.00;101140.67;1393947;88;21477;-79
2023/10/11 04:19:21;;;;;;;7.37;4.87;;;;;;;10.32;100.00;101138.29;1544696;89;22256;-80
2023/10/11 04:24:20;;;;;;;9.05;5.75;;;;;;;10.39;100.00;101138.98;1383778;88;21587;-79
2023/10/11 04:27:45;;;;;;;9.70;5.30;;;;;;;10.45;100.00;101138.12;1384941;88;22255;-80
2023/10/11 04:29:31;;;;;;;9.63;4.93;;;;;;;10.49;100.00;101139.52;1389523;89;22219;-79
2023/10/11 04:34:33;;;;;;;8.90;5.20;;;;;;;10.43;100.00;101145.34;1424811;88;21537;-79
2023/10/11 04:37:07;;;;;;;10.13;5.60;;;;;;;10.34;100.00;101145.14;1545987;88;21479;-80
2023/10/11 04:39:49;;;;;;;;;;;;;;;10.33;100.00;101146.12;1388802;88;22440;-81
2023/10/11 04:42:06;;;;;;;9.70;5.40;;;;;;;10.31;100.00;101153.33;1395614;90;20307;-81
2023/10/11 04:44:42;;;;;;;12.57;6.67;;;;;;;10.31;100.00;101158.63;1384781;88;21456;-80
2023/10/11 04:47:03;;;;;;;;;;;;;;;10.35;100.00;101150.77;1534667;89;21367;-79
2023/10/11 04:49:30;;;;;;;9.43;5.97;;;;;;;10.42;100.00;101146.31;1388301;88;20427;-82
2023/10/11 04:51:57;;;;;;;10.00;6.27;;;;;;;10.46;100.00;101147.73;1387466;88;21391;-81
2023/10/11 04:54:42;;;;;;;9.67;5.40;;;;;;;10.48;100.00;101151.09;1386760;88;22351;-80
2023/10/11 04:57:07;;;;;;;9.43;5.57;;;;;;;10.50;100.00;101151.78;1514979;88;21412;-81
2023/10/11 05:02:08;;;;;;;9.13;5.23;;;;;;;10.53;100.00;101156.81;1387356;88;21368;-79
2023/10/11 05:04:31;;;;;;;11.60;6.17;;;;;;;10.53;100.00;101157.67;1532362;89;21376;-78
2023/10/11 05:06:57;;;;;;;9.23;6.23;;;;;;;10.53;100.00;101156.81;1544182;89;21434;-80
2023/10/11 05:09:38;;;;;;;10.20;6.53;;;;;;;10.50;100.00;101170.30;1386990;88;22294;-80
2023/10/11 05:20:04;;;;;;;14.13;6.80;;;;;;;10.48;100.00;101178.88;1385855;88;22380;-78
2023/10/11 05:22:32;;;;;;;21.13;8.87;;;;;;;10.50;100.00;101185.73;1390038;90;21397;-79
2023/10/11 05:32:54;;;;;;;18.73;7.60;;;;;;;10.50;100.00;101204.71;1545768;88;22255;-79
2023/10/11 05:51:39;;;;;;;31.13;10.00;;;;;;;10.76;100.00;101213.11;1546359;88;21467;-79
2023/10/11 05:54:04;;;;;;;47.30;14.10;;;;;;;10.78;100.00;101213.34;1385168;90;21567;-79
2023/10/11 05:56:41;;;;;;;42.37;13.20;;;;;;;10.81;100.00;101214.40;1369944;91;21378;-78
2023/10/11 05:59:09;;;;;;;27.47;11.87;;;;;;;10.81;100.00;101216.21;1481221;92;21429;-78
2023/10/11 06:01:34;;;;;;;28.93;11.13;;;;;;;10.82;100.00;101213.45;1384434;88;22270;-79
2023/10/11 06:04:03;;;;;;;38.73;14.47;;;;;;;10.87;100.00;101214.85;1348862;91;21512;-79
2023/10/11 06:06:37;;;;;;;33.37;10.70;;;;;;;10.88;100.00;101212.09;1541512;89;21354;-78
2023/10/11 06:08:59;;;;;;;22.00;8.40;;;;;;;10.90;100.00;101214.59;1534633;89;22329;-79
2023/10/11 06:11:29;;;;;;;31.37;11.87;;;;;;;10.92;100.00;101228.06;1369352;90;22389;-79
2023/10/11 06:13:56;;;;;;;14.05;7.95;;;;;;;10.95;100.00;101226.48;1374594;90;21441;-79
2023/10/11 06:16:22;;;;;;;20.70;8.00;;;;;;;10.98;100.00;101227.53;1537433;89;21360;-79
2023/10/11 06:19:15;;;;;;;16.70;8.03;;;;;;;11.00;100.00;101228.25;1384804;89;21360;-79
2023/10/11 06:21:35;;;;;;;20.30;8.83;;;;;;;11.02;100.00;101229.47;1401034;89;22399;-80
2023/10/11 06:23:54;;;;;;;17.77;7.83;;;;;;;11.05;100.00;101234.50;1538695;89;21412;-80
2023/10/11 06:26:28;;;;;;;19.03;7.97;;;;;;;11.07;100.00;101230.72;1384586;89;22397;-78
2023/10/11 06:29:02;;;;;;;19.97;7.13;;;;;;;11.11;100.00;101227.34;1536679;89;22204;-80
2023/10/11 06:31:17;;;;;;;16.77;7.50;;;;;;;11.16;100.00;101225.61;1387421;89;22226;-78
2023/10/11 06:33:45;;;;;;;16.07;7.57;;;;;;;11.18;100.00;101229.80;1384824;88;21338;-79
2023/10/11 06:36:14;;;;;;;25.63;8.83;;;;;;;11.24;100.00;101226.63;1382539;88;21427;-81
2023/10/11 06:38:41;;;;;;;19.07;8.10;;;;;;;11.28;100.00;101229.38;1525519;89;21534;-79
2023/10/11 06:43:52;;;;;;;20.87;8.23;;;;;;;11.35;100.00;101231.50;1541577;88;21339;-79
2023/10/11 06:46:19;;;;;;;18.60;8.13;;;;;;;11.37;100.00;101236.19;1384591;89;21411;-79
2023/10/11 06:48:45;;;;;;;17.03;7.37;;;;;;;11.38;100.00;101229.41;1389740;89;21390;-80
2023/10/11 06:51:13;;;;;;;20.63;8.27;;;;;;;11.41;100.00;101233.61;1384637;89;21352;-79
2023/10/11 06:53:42;;;;;;;16.07;6.83;;;;;;;11.45;100.00;101238.52;1481859;89;22428;-79
2023/10/11 06:56:07;;;;;;;17.63;8.00;;;;;;;11.49;100.00;101242.57;1382403;88;21433;-79
2023/10/11 06:58:43;;;;;;;14.57;7.67;;;;;;;11.55;100.00;101245.67;1388105;89;21437;-79
2023/10/11 07:01:03;;;;;;;16.27;7.93;;;;;;;11.59;100.00;101250.55;1534392;89;21420;-79
2023/10/11 07:03:29;;;;;;;16.17;7.83;;;;;;;11.63;100.00;101247.17;1378080;89;22189;-80
2023/10/11 07:06:00;;;;;;;11.90;7.37;;;;;;;11.64;100.00;101243.04;1385506;89;21531;-79
2023/10/11 07:08:36;;;;;;;22.00;9.20;;;;;;;11.65;100.00;101247.39;1535442;89;21451;-79
2023/10/11 07:13:49;;;;;;;17.07;7.30;;;;;;;11.64;100.00;101243.04;1395517;89;21367;-79
2023/10/11 07:16:07;;;;;;;15.80;8.20;;;;;;;11.68;100.00;101246.25;1516796;89;21464;-79
2023/10/11 07:18:27;;;;;;;17.67;7.37;;;;;;;11.72;100.00;101255.14;1377244;90;21361;-79
2023/10/11 07:20:58;;;;;;;15.97;6.47;;;;;;;11.75;100.00;101248.73;1378651;90;21347;-79
2023/10/11 07:24:19;;;;;;;;;;;;;;;11.79;100.00;101251.45;1531915;89;21464;-79
2023/10/11 07:25:59;;;;;;;11.20;6.83;;;;;;;11.86;100.00;101242.52;1386222;90;20300;-78
2023/10/11 07:28:36;;;;;;;17.03;7.77;;;;;;;11.89;100.00;101244.41;1379370;90;22159;-79
2023/10/11 07:31:05;;;;;;;14.70;8.30;;;;;;;11.91;100.00;101245.58;1527890;90;21325;-79
2023/10/11 07:33:36;;;;;;;16.50;8.90;;;;;;;11.94;100.00;101254.13;1487643;89;21546;-79
2023/10/11 07:35:59;;;;;;;19.73;9.63;;;;;;;11.95;100.00;101248.33;1379290;89;21427;-80
2023/10/11 07:38:34;;;;;;;18.80;9.07;;;;;;;11.94;100.00;101250.64;1380094;90;22418;-80
2023/10/11 07:40:57;;;;;;;22.13;9.30;;;;;;;11.94;100.00;101250.15;1517635;89;21541;-79
2023/10/11 07:43:25;;;;;;;14.67;8.03;;;;;;;11.99;100.00;101247.06;1378188;89;21368;-79
2023/10/11 07:45:51;;;;;;;16.13;7.90;;;;;;;12.02;100.00;101244.63;1377336;89;21338;-79
2023/10/11 07:48:19;;;;;;;15.40;8.77;;;;;;;12.05;100.00;101243.86;1378914;89;21498;-79
2023/10/11 07:50:46;;;;;;;24.07;12.73;;;;;;;12.13;100.00;101244.52;1383788;90;21434;-79
2023/10/11 07:53:14;;;;;;;17.80;9.93;;;;;;;12.19;100.00;101247.44;1356389;91;22229;-80
2023/10/11 07:55:41;;;;;;;13.53;7.97;;;;;;;12.26;100.00;101241.11;1378580;89;21339;-79
2023/10/11 07:58:10;;;;;;;22.97;9.00;;;;;;;12.30;100.00;101242.50;1383912;89;21539;-80
2023/10/11 08:00:41;;;;;;;13.53;7.03;;;;;;;12.30;100.00;101248.30;1535646;90;21309;-78
2023/10/11 08:03:05;;;;;;;13.30;8.33;;;;;;;12.33;100.00;101248.02;1534621;89;21376;-79
2023/10/11 08:05:45;;;;;;;16.93;8.53;;;;;;;12.36;100.00;101249.91;1378793;89;21384;-79
2023/10/11 08:08:06;;;;;;;19.20;7.93;;;;;;;12.40;100.00;101251.81;1524900;89;21534;-79
2023/10/11 08:10:35;;;;;;;19.73;9.00;;;;;;;12.42;100.00;101255.98;1380027;89;21316;-81
2023/10/11 08:13:02;;;;;;;18.57;8.20;;;;;;;12.49;100.00;101258.10;1376518;89;21354;-78
2023/10/11 08:15:29;;;;;;;23.97;9.70;;;;;;;12.56;100.00;101259.20;1383862;89;21560;-84
2023/10/11 08:17:55;;;;;;;14.63;8.53;;;;;;;12.60;100.00;101248.17;1535494;89;21287;-80
2023/10/11 08:20:28;;;;;;;17.93;8.27;;;;;;;12.65;100.00;101247.23;1379335;90;21309;-79
2023/10/11 08:22:55;;;;;;;21.27;9.37;;;;;;;12.73;100.00;101251.86;1533256;89;21383;-79
2023/10/11 08:25:25;;;;;;;16.47;9.17;;;;;;;12.79;100.00;101243.81;1376375;90;21597;-79
2023/10/11 08:27:51;;;;;;;15.80;8.80;;;;;;;12.81;100.00;101247.17;1522287;90;21415;-79
2023/10/11 08:32:46;;;;;;;18.00;9.77;;;;;;;12.87;100.00;101251.91;1356789;91;21576;-79
2023/10/11 08:35:26;;;;;;;14.97;10.63;;;;;;;12.88;100.00;101263.70;1375653;89;21597;-79
2023/10/11 08:37:52;;;;;;;23.30;12.97;;;;;;;12.91;100.00;101258.60;1534821;89;22330;-79
2023/10/11 08:40:23;;;;;;;20.43;9.70;;;;;;;12.97;100.00;101258.53;1375874;90;22234;-80
2023/10/11 08:42:50;;;;;;;26.60;14.10;;;;;;;13.01;100.00;101260.77;1529496;89;22382;-79
2023/10/11 08:45:33;;;;;;;26.63;15.43;;;;;;;13.07;100.00;101265.50;1356387;91;21356;-77
2023/10/11 08:48:06;;;;;;;26.80;13.83;;;;;;;13.13;100.00;101263.27;1535673;89;21399;-79
2023/10/11 08:50:37;;;;;;;15.57;8.50;;;;;;;13.18;100.00;101259.69;1500608;91;21452;-79
2023/10/11 08:53:08;;;;;;;20.57;8.73;;;;;;;13.19;100.00;101261.35;1520669;89;21427;-80
2023/10/11 08:55:41;;;;;;;21.23;9.00;;;;;;;13.21;100.00;101266.88;1377837;89;21405;-80
2023/10/11 08:58:12;;;;;;;12.63;7.77;;;;;;;13.25;100.00;101264.30;1379074;89;21580;-80
2023/10/11 09:00:39;;;;;;;13.40;8.00;;;;;;;13.32;100.00;101257.89;1545980;88;22337;-78
2023/10/11 09:03:19;;;;;;;23.17;8.63;;;;;;;13.39;100.00;101260.83;1386831;88;22188;-80
2023/10/11 09:05:47;;;;;;;18.63;7.83;;;;;;;13.44;100.00;101256.75;1539905;88;21382;-79
2023/10/11 09:08:22;;;;;;;20.40;8.17;;;;;;;13.53;100.00;101252.38;1385779;88;22227;-80
2023/10/11 09:10:51;;;;;;;13.13;6.73;;;;;;;13.62;100.00;101254.65;1383664;89;21353;-77
2023/10/11 09:13:27;;;;;;;15.10;7.80;;;;;;;13.67;100.00;101254.55;1385391;89;21604;-79
2023/10/11 09:15:54;;;;;;;18.57;9.33;;;;;;;13.74;100.00;101256.12;1386860;89;21643;-79
2023/10/11 09:18:24;;;;;;;18.07;10.67;;;;;;;13.78;100.00;101258.81;1386172;88;21419;-80
2023/10/11 09:21:29;;;;;;;18.93;11.23;;;;;;;13.81;100.00;101251.90;1544760;89;21383;-77
2023/10/11 09:23:38;;;;;;;28.47;16.03;;;;;;;13.85;100.00;101253.27;1515983;89;21426;-91
2023/10/11 09:26:08;;;;;;;23.73;12.77;;;;;;;13.91;100.00;101246.51;1518382;91;21289;-90
2023/10/11 09:28:40;;;;;;;18.55;9.83;;;;;;;13.99;100.00;101250.59;1427053;92;21422;-87
2023/10/11 09:31:20;;;;;;;21.07;7.17;;;;;;;14.06;100.00;101247.66;1344711;92;21377;-87
2023/10/11 09:36:29;;;;;;;13.00;6.37;;;;;;;14.31;100.00;101251.91;1495873;92;21335;-92
2023/10/11 09:38:56;;;;;;;9.50;6.73;;;;;;;14.44;100.00;101256.34;1352210;92;21589;-90
2023/10/11 09:41:38;;;;;;;13.47;7.30;;;;;;;14.55;100.00;101252.66;1495526;92;21319;-88
2023/10/11 09:44:00;;;;;;;26.10;7.67;;;;;;;14.66;100.00;101261.24;1494498;92;21393;-90
2023/10/11 09:46:30;;;;;;;15.30;7.13;;;;;;;14.74;100.00;101256.48;1346598;92;22244;-90
2023/10/11 09:49:00;;;;;;;17.65;7.67;;;;;;;14.78;100.00;101256.50;1348667;92;21411;-88
2023/10/11 09:51:27;;;;;;;21.77;8.50;;;;;;;14.88;100.00;101248.44;1495244;92;21425;-88
2023/10/11 09:53:53;;;;;;;21.13;7.80;;;;;;;15.03;100.00;101254.03;1345760;92;22273;-89
2023/10/11 09:56:48;;;;;;;17.97;8.37;;;;;;;15.14;100.00;101249.77;1346976;92;21486;-88
2023/10/11 09:59:22;;;;;;;17.77;7.40;;;;;;;15.30;100.00;101239.17;1349527;92;22495;-90
2023/10/11 10:01:56;;;;;;;13.87;7.07;;;;;;;15.42;100.00;101237.56;1420100;89;21610;-90
2023/10/11 10:04:53;;;;;;;20.10;8.50;;;;;;;15.43;100.00;101243.27;1383045;89;21371;-87
2023/10/11 10:07:42;;;;;;;19.47;7.60;;;;;;;15.39;100.00;101233.39;1381166;89;21390;-83
2023/10/11 10:10:01;;;;;;;13.97;8.00;;;;;;;15.34;100.00;101232.55;1540502;89;21390;-82
2023/10/11 10:12:35;;;;;;;14.23;8.00;;;;;;;15.42;100.00;101233.56;1385207;88;21508;-88
2023/10/11 10:15:32;;;;;;;15.77;8.00;;;;;;;15.55;100.00;101239.31;1383322;89;22448;-89
2023/10/11 10:18:05;;;;;;;16.43;8.30;;;;;;;15.67;100.00;101242.02;1536280;89;21383;-88
2023/10/11 10:20:43;;;;;;;16.87;8.10;;;;;;;15.82;100.00;101240.09;1542032;89;21339;-90
2023/10/11 10:23:22;;;;;;;15.50;8.37;;;;;;;15.90;100.00;101230.78;1527751;89;21509;-86
2023/10/11 10:26:13;;;;;;;17.67;9.07;;;;;;;16.04;100.00;101232.82;1541605;88;21398;-90
2023/10/11 10:28:52;;;;;;;23.47;9.70;;;;;;;16.11;100.00;101237.86;1535060;89;21397;-86
2023/10/11 10:31:21;;;;;;;19.90;9.93;;;;;;;16.12;100.00;101239.52;1541940;89;21486;-82
2023/10/11 10:34:04;;;;;;;25.23;9.17;;;;;;;16.12;100.00;101236.84;1381637;89;21449;-81
2023/10/11 10:36:37;;;;;;;23.57;9.60;;;;;;;16.12;100.00;101238.19;1444282;89;21309;-82
2023/10/11 10:41:44;;;;;;;15.60;9.53;;;;;;;16.07;100.00;101239.67;1541633;88;21332;-80
2023/10/11 10:44:09;;;;;;;20.88;10.25;;;;;;;16.03;100.00;101239.67;1529517;89;22394;-78
2023/10/11 10:46:50;;;;;;;20.17;9.70;;;;;;;15.98;100.00;101236.98;1359026;91;21642;-81
2023/10/11 10:49:21;;;;;;;29.05;10.20;;;;;;;15.97;100.00;101242.50;1541571;88;22293;-82
2023/10/11 10:51:47;;;;;;;17.30;10.77;;;;;;;15.95;100.00;101238.64;1369058;91;21546;-80
2023/10/11 10:54:22;;;;;;;33.87;11.93;;;;;;;15.93;100.00;101235.80;1382315;89;21456;-78
2023/10/11 10:56:48;;;;;;;23.25;10.63;;;;;;;15.92;100.00;101229.63;1541072;89;22322;-81
2023/10/11 10:59:20;;;;;;;;;;;;;;;15.96;100.00;101224.78;1391558;88;21405;-81
2023/10/11 11:01:45;;;;;;;19.87;9.77;;;;;;;15.93;100.00;101217.94;1391728;88;20254;-81
2023/10/11 11:04:13;;;;;;;25.63;10.33;;;;;;;15.97;100.00;101215.30;1386211;88;21353;-82
2023/10/11 11:06:47;;;;;;;17.53;9.20;;;;;;;16.06;100.00;101214.81;1346422;92;21512;-81
2023/10/11 11:09:19;;;;;;;24.33;10.23;;;;;;;16.17;100.00;101210.49;1503729;91;22154;-78
2023/10/11 11:11:48;;;;;;;26.47;8.73;;;;;;;16.30;100.00;101204.64;1497834;92;21547;-79
2023/10/11 11:14:23;;;;;;;29.37;9.50;;;;;;;16.45;100.00;101203.48;1420970;92;21475;-79
2023/10/11 11:16:58;;;;;;;17.03;9.07;;;;;;;16.61;100.00;101199.47;1495265;92;21355;-81
2023/10/11 11:19:34;;;;;;;25.30;8.50;;;;;;;16.80;100.00;101198.80;1495250;92;21386;-81
2023/10/11 11:22:12;;;;;;;21.60;9.23;;;;;;;16.99;100.00;101189.59;1361743;92;21639;-81
2023/10/11 11:24:43;;;;;;;20.83;9.73;;;;;;;17.17;100.00;101190.70;1489839;92;21641;-81
2023/10/11 11:27:25;;;;;;;15.85;9.78;;;;;;;17.35;98.47;101188.64;1343995;92;21497;-81
2023/10/11 11:29:49;;;;;;;25.20;9.03;;;;;;;17.52;97.70;101190.24;1315176;96;21364;-80
2023/10/11 11:32:19;;;;;;;23.52;9.18;;;;;;;17.62;95.24;101186.00;1346376;92;21334;-81
2023/10/11 11:35:09;;;;;;;20.57;7.47;;;;;;;17.64;94.59;101185.84;1371647;94;22303;-80
2023/10/11 11:37:34;;;;;;;26.55;8.10;;;;;;;17.65;94.40;101174.11;1493684;92;21541;-81
2023/10/11 11:40:19;;;;;;;13.53;8.55;;;;;;;17.71;94.51;101175.57;1345506;92;21371;-81
2023/10/11 11:42:47;;;;;;;47.15;11.38;;;;;;;17.73;94.31;101172.22;1495225;92;21320;-81
2023/10/11 11:45:19;;;;;;;24.85;8.03;;;;;;;17.79;94.53;101172.05;1351157;91;21362;-81
2023/10/11 11:47:58;;;;;;;16.10;8.33;;;;;;;17.84;94.35;101179.06;1489920;92;21349;-80
2023/10/11 11:50:26;;;;;;;19.32;9.98;;;;;;;17.83;93.31;101176.03;1495237;92;21297;-81
2023/10/11 11:52:57;;;;;;;18.82;7.95;;;;;;;17.85;93.65;101178.03;1345143;92;21526;-81
2023/10/11 11:55:24;;;;;;;36.40;16.57;;;;;;;17.85;93.60;101172.68;1344500;92;21566;-81
2023/10/11 11:57:49;;;;;;;19.62;8.15;;;;;;;17.87;93.61;101175.20;1350761;91;21526;-80
2023/10/11 12:02:48;;;;;;;20.02;7.87;;;;;;;17.91;93.35;101165.78;1535845;88;21398;-81
2023/10/11 12:05:15;;;;;;;12.05;7.65;;;;;;;17.93;93.52;101161.92;1384791;89;21562;-79
2023/10/11 12:07:43;;;;;;;15.32;8.43;;;;;;;17.95;93.14;101155.89;1389373;89;21538;-82
2023/10/11 12:10:25;;;;;;;18.12;8.55;;;;;;;17.97;92.66;101153.84;1382638;89;21368;-83
2023/10/11 12:13:05;;;;;;;20.60;9.10;;;;;;;18.01;92.83;101152.97;1541494;89;21324;-81
2023/10/11 12:15:25;;;;;;;20.25;7.97;;;;;;;18.10;92.67;101149.25;1535496;89;22403;-82
2023/10/11 12:17:54;;;;;;;20.35;8.70;;;;;;;18.18;92.29;101141.63;1384557;89;21316;-82
2023/10/11 12:20:33;;;;;;;20.70;8.08;;;;;;;18.23;92.25;101136.06;1387076;89;21376;-81
2023/10/11 12:22:54;;;;;;;16.20;8.38;;;;;;;18.28;91.34;101133.36;1387591;90;21428;-81
2023/10/11 12:25:24;;;;;;;24.35;9.23;;;;;;;18.31;91.32;101131.15;1381136;88;21680;-81
2023/10/11 12:27:48;;;;;;;13.80;8.65;;;;;;;18.34;91.10;101129.44;1540907;89;21433;-82
2023/10/11 12:30:22;;;;;;;20.85;7.25;;;;;;;18.38;91.00;101129.91;1385489;89;21330;-81
2023/10/11 12:32:51;;;;;;;33.60;8.33;;;;;;;18.39;90.64;101127.06;1535454;89;21420;-82